Time;durP1;ratioP1;P1;durP2;ratioP2;P2;SDS_P1;SDS_P2;PMS_P1;PMS_P2;Temp;Humidity;BMP_temperature;BMP_pressure;BME280_temperature;BME280_humidity;BME280_pressure;Samples;Min_cycle;Max_cycle;Signal;HPM_P1;HPM_P2
2021/11/15 00:00:08;;;;;;;0.50;0.50;;;;;;;8.42;68.52;101775.48;101085;1321;140488;-77
2021/11/15 00:02:59;;;;;;;0.50;0.50;;;;;;;8.44;68.56;101775.66;100924;1321;111120;-77
2021/11/15 00:05:27;;;;;;;0.50;0.50;;;;;;;8.38;68.45;101775.45;100870;1325;137806;-77
2021/11/15 00:08:00;;;;;;;0.50;0.50;;;;;;;8.39;68.42;101778.30;101120;1320;95397;-77
2021/11/15 00:10:27;;;;;;;0.50;0.40;;;;;;;8.44;68.51;101776.91;101033;1319;140043;-77
2021/11/15 00:12:56;;;;;;;0.40;0.40;;;;;;;8.49;68.24;101778.20;100983;1321;108915;-78
2021/11/15 00:15:25;;;;;;;0.50;0.50;;;;;;;8.46;68.16;101777.83;101088;1320;109917;-78
2021/11/15 00:17:52;;;;;;;0.50;0.50;;;;;;;8.34;68.48;101784.28;100813;1322;139072;-77
2021/11/15 00:20:20;;;;;;;0.50;0.50;;;;;;;8.43;68.47;101779.73;101104;1320;95695;-77
2021/11/15 00:22:48;;;;;;;0.50;0.50;;;;;;;8.49;68.46;101786.70;101010;1320;138168;-77
2021/11/15 00:25:16;;;;;;;0.50;0.50;;;;;;;8.37;68.43;101795.80;100856;1321;109796;-77
2021/11/15 00:27:44;;;;;;;0.50;0.50;;;;;;;8.20;68.86;101798.19;101086;1321;95350;-78
2021/11/15 00:30:13;;;;;;;0.50;0.50;;;;;;;8.10;69.63;101801.84;100888;1320;138676;-77
2021/11/15 00:32:41;;;;;;;0.50;0.40;;;;;;;8.19;69.15;101800.48;101118;1321;107895;-78
2021/11/15 00:35:10;;;;;;;0.50;0.40;;;;;;;8.16;69.21;101799.94;100982;1320;138404;-77
2021/11/15 00:37:39;;;;;;;0.60;0.60;;;;;;;8.06;69.64;101799.34;101143;1321;95730;-77
2021/11/15 00:40:11;;;;;;;0.60;0.60;;;;;;;8.11;69.83;101798.49;101130;1319;96106;-77
2021/11/15 00:42:39;;;;;;;0.50;0.40;;;;;;;8.23;69.68;101801.23;100961;1320;139914;-77
2021/11/15 00:45:09;;;;;;;0.50;0.40;;;;;;;8.30;69.35;101800.90;100875;1320;110358;-75
2021/11/15 00:47:36;;;;;;;0.50;0.50;;;;;;;8.12;69.33;101804.68;101032;1320;138581;-77
2021/11/15 00:50:07;;;;;;;0.50;0.50;;;;;;;7.94;70.11;101810.75;101107;1321;96760;-77
2021/11/15 00:52:35;;;;;;;0.40;0.40;;;;;;;8.00;70.55;101807.08;101207;1320;140292;-77
2021/11/15 00:55:04;;;;;;;0.50;0.40;;;;;;;8.09;70.02;101804.30;101101;1320;108887;-77
2021/11/15 00:57:32;;;;;;;0.50;0.50;;;;;;;8.10;70.27;101805.38;101009;1322;95845;-77
2021/11/15 00:59:59;;;;;;;0.50;0.50;;;;;;;8.07;69.92;101807.84;101045;1320;141690;-77
2021/11/15 01:02:27;;;;;;;0.50;0.50;;;;;;;7.97;70.55;101810.95;101129;1321;107915;-77
2021/11/15 01:04:55;;;;;;;0.50;0.40;;;;;;;7.98;70.68;101811.50;101012;1320;139717;-77
2021/11/15 01:07:24;;;;;;;0.50;0.50;;;;;;;7.97;70.60;101809.89;100937;1322;95231;-77
2021/11/15 01:09:52;;;;;;;0.50;0.50;;;;;;;7.91;70.79;101810.02;101092;1320;96132;-77
2021/11/15 01:12:20;;;;;;;0.50;0.50;;;;;;;8.00;70.99;101813.45;101009;1319;138902;-76
2021/11/15 01:14:48;;;;;;;0.50;0.40;;;;;;;8.12;70.79;101815.13;101081;1321;108509;-76
2021/11/15 01:17:16;;;;;;;0.50;0.50;;;;;;;8.21;70.55;101812.35;100969;1321;138837;-77
2021/11/15 01:19:43;;;;;;;0.50;0.40;;;;;;;8.11;70.31;101814.05;101121;1320;95808;-77
2021/11/15 01:22:12;;;;;;;0.50;0.50;;;;;;;8.03;70.75;101810.45;100931;1321;108697;-77
2021/11/15 01:24:40;;;;;;;0.50;0.50;;;;;;;7.97;70.98;101815.55;100856;1320;138837;-77
2021/11/15 01:27:08;;;;;;;0.50;0.40;;;;;;;7.86;71.21;101811.23;101129;1321;96657;-76
2021/11/15 01:29:36;;;;;;;0.50;0.40;;;;;;;7.76;71.29;101809.19;100993;1319;139873;-77
2021/11/15 01:32:04;;;;;;;0.50;0.50;;;;;;;7.73;71.57;101810.77;101021;1321;107896;-77
2021/11/15 01:34:33;;;;;;;0.50;0.50;;;;;;;7.73;71.73;101816.23;100968;1321;138352;-77
2021/11/15 01:37:01;;;;;;;0.50;0.40;;;;;;;7.73;72.26;101818.91;100982;1320;95353;-77
2021/11/15 01:39:28;;;;;;;0.50;0.40;;;;;;;7.75;71.92;101817.50;101156;1319;95614;-77
2021/11/15 01:41:57;;;;;;;0.50;0.50;;;;;;;7.85;71.96;101818.12;101031;1321;139106;-77
2021/11/15 01:44:25;;;;;;;0.50;0.50;;;;;;;7.78;71.68;101816.29;101143;1320;109396;-76
2021/11/15 01:46:52;;;;;;;0.50;0.50;;;;;;;7.75;72.29;101821.39;101068;1321;138456;-77
2021/11/15 01:49:20;;;;;;;0.50;0.50;;;;;;;7.72;72.18;101819.25;101145;1321;95299;-76
2021/11/15 01:51:48;;;;;;;0.50;0.40;;;;;;;7.67;72.40;101817.98;101090;1321;107897;-78
2021/11/15 01:54:16;;;;;;;0.50;0.50;;;;;;;7.74;72.56;101821.02;100995;1321;139099;-77
2021/11/15 01:56:44;;;;;;;0.50;0.50;;;;;;;7.84;72.06;101815.98;101144;1320;96635;-77
2021/11/15 01:59:11;;;;;;;0.50;0.50;;;;;;;7.77;71.82;101821.95;100969;1319;138979;-78
2021/11/15 02:01:39;;;;;;;0.50;0.40;;;;;;;7.80;72.16;101818.07;100825;1321;108751;-76
2021/11/15 02:04:07;;;;;;;0.50;0.50;;;;;;;7.83;72.06;101812.61;101089;1321;109812;-76
2021/11/15 02:06:35;;;;;;;0.50;0.50;;;;;;;7.89;72.10;101814.08;100980;1320;139217;-76
2021/11/15 02:09:06;;;;;;;0.50;0.50;;;;;;;7.93;71.84;101818.17;101128;1321;95400;-76
2021/11/15 02:11:34;;;;;;;0.50;0.50;;;;;;;8.02;71.83;101821.77;101058;1321;137887;-77
2021/11/15 02:14:03;;;;;;;0.50;0.40;;;;;;;8.05;71.42;101827.80;101116;1321;109882;-77
2021/11/15 02:16:32;;;;;;;0.50;0.50;;;;;;;8.01;71.76;101822.48;100881;1321;138239;-77
2021/11/15 02:19:00;;;;;;;0.50;0.50;;;;;;;8.12;71.71;101825.73;101026;1323;95717;-77
2021/11/15 02:21:29;;;;;;;0.50;0.50;;;;;;;8.14;71.31;101822.56;101160;1320;106868;-78
2021/11/15 02:23:57;;;;;;;0.50;0.40;;;;;;;8.03;71.34;101825.67;100943;1321;138208;-76
2021/11/15 02:26:25;;;;;;;0.60;0.60;;;;;;;7.90;71.72;101826.11;100967;1320;95368;-77
2021/11/15 02:28:53;;;;;;;0.50;0.50;;;;;;;7.85;71.73;101830.31;101067;1321;140010;-78
2021/11/15 02:31:28;;;;;;;0.50;0.50;;;;;;;7.88;72.08;101830.15;101121;1321;109052;-77
2021/11/15 02:33:58;;;;;;;0.50;0.50;;;;;;;7.86;72.53;101827.84;101080;1321;108822;-76
2021/11/15 02:36:28;;;;;;;0.50;0.50;;;;;;;7.92;72.10;101828.95;101122;1320;139144;-76
2021/11/15 02:38:56;;;;;;;0.50;0.40;;;;;;;7.87;72.35;101829.27;101056;1320;95607;-77
2021/11/15 02:41:25;;;;;;;0.50;0.40;;;;;;;7.98;72.26;101831.47;101006;1320;139729;-77
2021/11/15 02:43:53;;;;;;;0.50;0.40;;;;;;;7.94;71.63;101833.58;101083;1319;109698;-76
2021/11/15 02:46:21;;;;;;;0.50;0.50;;;;;;;7.87;72.13;101833.88;101113;1321;95274;-77
2021/11/15 02:48:49;;;;;;;0.60;0.60;;;;;;;7.81;72.32;101840.19;101056;1320;139192;-76
2021/11/15 02:51:17;;;;;;;0.50;0.40;;;;;;;7.78;72.48;101841.21;101135;1324;108888;-76
2021/11/15 02:53:45;;;;;;;0.50;0.50;;;;;;;7.68;72.63;101836.36;100871;1321;137683;-76
2021/11/15 02:56:14;;;;;;;0.50;0.50;;;;;;;7.61;73.08;101838.78;101112;1321;95515;-76
2021/11/15 02:58:42;;;;;;;0.50;0.50;;;;;;;7.54;73.29;101840.65;101006;1318;139940;-76
2021/11/15 03:01:13;;;;;;;0.50;0.50;;;;;;;7.49;73.56;101840.43;101138;1320;106870;-76
2021/11/15 03:03:41;;;;;;;0.50;0.50;;;;;;;7.65;73.65;101841.99;101253;1321;107811;-77
2021/11/15 03:06:09;;;;;;;0.50;0.50;;;;;;;7.70;73.35;101840.27;100747;1320;137757;-76
2021/11/15 03:08:39;;;;;;;0.50;0.50;;;;;;;7.86;73.21;101837.92;100983;1317;95718;-77
2021/11/15 03:11:07;;;;;;;0.50;0.50;;;;;;;7.95;72.52;101840.11;101020;1320;139162;-77
2021/11/15 03:13:41;;;;;;;0.50;0.50;;;;;;;8.00;72.44;101844.39;100746;1324;108841;-77
2021/11/15 03:16:10;;;;;;;0.50;0.50;;;;;;;7.89;72.34;101846.27;101146;1320;95762;-76
2021/11/15 03:18:40;;;;;;;0.50;0.50;;;;;;;7.79;72.66;101849.02;101030;1320;138478;-78
2021/11/15 03:21:13;;;;;;;0.50;0.50;;;;;;;7.77;72.98;101853.05;101081;1321;108933;-77
2021/11/15 03:23:43;;;;;;;0.50;0.50;;;;;;;7.74;72.96;101855.15;100860;1320;138467;-78
2021/11/15 03:26:12;;;;;;;0.50;0.50;;;;;;;7.75;73.18;101853.76;101003;1321;95701;-76
2021/11/15 03:28:43;;;;;;;0.60;0.60;;;;;;;7.79;73.01;101859.09;101121;1321;139472;-76
2021/11/15 03:31:17;;;;;;;0.50;0.50;;;;;;;7.74;72.67;101858.34;100924;1321;107885;-77
2021/11/15 03:33:46;;;;;;;0.40;0.40;;;;;;;7.62;72.97;101858.40;101001;1321;109304;-79
2021/11/15 03:36:14;;;;;;;0.50;0.50;;;;;;;7.59;73.59;101861.73;100936;1321;138620;-77
2021/11/15 03:38:42;;;;;;;0.60;0.60;;;;;;;7.66;73.49;101857.38;101115;1321;96094;-77
2021/11/15 03:41:11;;;;;;;0.50;0.50;;;;;;;7.70;73.25;101855.84;100729;1324;138656;-76
2021/11/15 03:43:39;;;;;;;0.50;0.50;;;;;;;7.67;73.20;101855.09;100838;1321;109790;-77
2021/11/15 03:46:08;;;;;;;0.60;0.60;;;;;;;7.61;73.35;101856.27;101012;1321;95613;-76
2021/11/15 03:48:36;;;;;;;0.50;0.50;;;;;;;7.56;73.55;101857.63;100924;1320;139169;-77
2021/11/15 03:51:03;;;;;;;0.50;0.50;;;;;;;7.59;73.65;101859.09;100805;1324;110359;-76
2021/11/15 03:53:34;;;;;;;0.50;0.40;;;;;;;7.64;73.39;101857.36;100660;1324;138784;-77
2021/11/15 03:56:07;;;;;;;0.50;0.40;;;;;;;7.57;73.48;101862.59;100967;1321;95363;-77
2021/11/15 03:58:36;;;;;;;0.50;0.50;;;;;;;7.61;74.06;101863.33;100987;1323;140464;-76
2021/11/15 04:01:04;;;;;;;0.50;0.50;;;;;;;7.75;73.59;101862.58;101164;1320;108383;-77
2021/11/15 04:03:36;;;;;;;0.50;0.40;;;;;;;7.80;73.15;101865.45;101246;1320;108810;-77
2021/11/15 04:06:12;;;;;;;0.40;0.40;;;;;;;7.79;72.50;101866.70;101060;1318;138392;-77
2021/11/15 04:08:40;;;;;;;0.50;0.50;;;;;;;7.73;72.52;101866.64;101234;1319;95267;-77
2021/11/15 04:11:08;;;;;;;0.60;0.60;;;;;;;7.68;72.65;101873.48;100822;1325;139554;-77
2021/11/15 04:13:39;;;;;;;0.50;0.50;;;;;;;7.64;72.67;101873.81;100988;1320;108812;-77
2021/11/15 04:16:10;;;;;;;0.50;0.50;;;;;;;7.75;73.00;101874.80;101147;1320;95365;-77
2021/11/15 04:18:42;;;;;;;0.50;0.50;;;;;;;7.79;72.34;101882.60;100969;1320;139323;-77
2021/11/15 04:21:12;;;;;;;0.50;0.50;;;;;;;7.69;72.61;101884.80;100999;1319;107557;-77
2021/11/15 04:23:40;;;;;;;0.50;0.50;;;;;;;7.78;72.79;101888.06;101169;1321;140299;-75
2021/11/15 04:26:08;;;;;;;0.50;0.50;;;;;;;7.81;72.42;101882.98;101073;1318;95279;-77
2021/11/15 04:28:36;;;;;;;0.50;0.40;;;;;;;7.71;72.56;101881.12;101029;1318;140596;-77
2021/11/15 04:31:03;;;;;;;0.50;0.50;;;;;;;7.66;72.90;101875.40;101152;1318;107925;-78
2021/11/15 04:33:32;;;;;;;0.50;0.50;;;;;;;7.61;72.77;101875.36;101113;1319;108902;-76
2021/11/15 04:35:59;;;;;;;0.50;0.50;;;;;;;7.66;73.38;101874.52;101067;1318;139908;-77
2021/11/15 04:38:27;;;;;;;0.50;0.50;;;;;;;7.73;72.68;101877.42;101198;1318;95260;-77
2021/11/15 04:40:55;;;;;;;0.50;0.50;;;;;;;7.71;72.57;101882.89;101090;1318;137833;-77
2021/11/15 04:43:23;;;;;;;0.50;0.50;;;;;;;7.67;72.93;101889.73;101158;1323;110329;-77
2021/11/15 04:45:51;;;;;;;0.50;0.50;;;;;;;7.74;73.46;101884.67;101106;1321;95771;-77
2021/11/15 04:48:19;;;;;;;0.50;0.50;;;;;;;7.78;72.67;101886.48;101067;1319;138586;-77
2021/11/15 04:50:46;;;;;;;0.50;0.50;;;;;;;7.74;72.52;101888.40;101073;1318;107900;-76
2021/11/15 04:53:14;;;;;;;0.50;0.50;;;;;;;7.61;73.04;101887.02;101023;1321;138056;-77
2021/11/15 04:55:42;;;;;;;0.50;0.50;;;;;;;7.50;73.40;101886.92;101161;1318;95457;-77
2021/11/15 04:58:10;;;;;;;0.50;0.50;;;;;;;7.56;73.69;101888.40;101103;1321;95293;-77
2021/11/15 05:00:38;;;;;;;0.50;0.50;;;;;;;7.67;73.52;101889.02;101063;1318;138822;-77
2021/11/15 05:03:06;;;;;;;0.50;0.50;;;;;;;7.76;73.14;101888.95;101096;1322;109813;-77
2021/11/15 05:05:34;;;;;;;0.50;0.50;;;;;;;7.72;72.93;101892.45;101063;1318;137709;-77
2021/11/15 05:08:02;;;;;;;0.50;0.50;;;;;;;7.67;72.85;101893.63;101150;1321;96183;-76
2021/11/15 05:10:30;;;;;;;0.50;0.50;;;;;;;7.70;73.15;101895.78;100928;1321;138470;-76
2021/11/15 05:13:01;;;;;;;0.50;0.40;;;;;;;7.73;73.10;101899.16;101144;1318;111313;-76
2021/11/15 05:15:30;;;;;;;0.50;0.50;;;;;;;7.82;73.36;101901.90;100883;1321;95625;-76
2021/11/15 05:17:58;;;;;;;0.50;0.50;;;;;;;7.99;72.89;101906.48;101080;1318;139471;-77
2021/11/15 05:20:26;;;;;;;0.50;0.50;;;;;;;7.99;72.33;101909.48;101137;1321;108885;-76
2021/11/15 05:22:53;;;;;;;0.50;0.50;;;;;;;7.90;72.30;101907.46;100984;1321;138980;-76
2021/11/15 05:25:21;;;;;;;0.50;0.50;;;;;;;7.76;72.35;101909.62;101210;1318;95264;-77
2021/11/15 05:27:49;;;;;;;0.50;0.50;;;;;;;7.64;73.01;101910.74;101257;1318;95245;-76
2021/11/15 05:30:19;;;;;;;0.50;0.50;;;;;;;7.71;72.85;101911.17;101064;1318;138012;-76
2021/11/15 05:32:48;;;;;;;0.50;0.50;;;;;;;7.66;72.79;101913.95;101213;1318;110290;-76
2021/11/15 05:35:16;;;;;;;0.50;0.50;;;;;;;7.66;73.05;101916.07;101161;1318;138601;-79
2021/11/15 05:37:44;;;;;;;0.50;0.50;;;;;;;7.67;73.47;101918.20;101191;1320;96532;-77
2021/11/15 05:40:14;;;;;;;0.60;0.60;;;;;;;7.74;73.26;101926.23;101239;1318;109009;-76
2021/11/15 05:42:42;;;;;;;0.50;0.50;;;;;;;7.72;73.01;101930.09;101016;1320;138899;-76
2021/11/15 05:45:10;;;;;;;0.50;0.50;;;;;;;7.58;73.08;101930.48;101247;1318;95250;-77
2021/11/15 05:47:41;;;;;;;0.50;0.50;;;;;;;7.56;73.43;101933.64;101165;1318;138777;-77
2021/11/15 05:50:10;;;;;;;0.50;0.50;;;;;;;7.47;73.45;101938.14;100908;1324;106916;-77
2021/11/15 05:52:42;;;;;;;0.50;0.50;;;;;;;7.35;73.60;101936.77;101143;1320;138733;-77
2021/11/15 05:55:16;;;;;;;0.50;0.50;;;;;;;7.35;74.08;101942.95;101131;1319;95235;-76
2021/11/15 05:57:44;;;;;;;0.50;0.50;;;;;;;7.47;73.84;101946.09;101307;1318;95793;-76
2021/11/15 06:00:15;;;;;;;0.50;0.50;;;;;;;7.44;73.53;101945.88;100862;1320;138137;-76
2021/11/15 06:02:43;;;;;;;0.50;0.50;;;;;;;7.37;73.77;101946.86;101202;1318;108945;-77
2021/11/15 06:05:11;;;;;;;0.50;0.50;;;;;;;7.43;73.74;101953.45;101180;1318;138722;-77
2021/11/15 06:07:41;;;;;;;0.50;0.50;;;;;;;7.43;73.78;101959.81;101283;1318;95706;-78
2021/11/15 06:10:09;;;;;;;0.50;0.50;;;;;;;7.46;73.73;101962.52;101158;1318;108695;-77
2021/11/15 06:12:38;;;;;;;0.50;0.50;;;;;;;7.39;73.70;101967.02;100955;1320;139775;-77
2021/11/15 06:15:09;;;;;;;0.60;0.60;;;;;;;7.39;73.99;101971.61;101420;1318;95253;-77
2021/11/15 06:17:38;;;;;;;0.50;0.50;;;;;;;7.38;73.91;101973.73;101318;1319;139684;-76
2021/11/15 06:20:07;;;;;;;0.50;0.50;;;;;;;7.38;73.77;101974.95;101206;1321;108880;-77
2021/11/15 06:22:35;;;;;;;0.50;0.50;;;;;;;7.33;73.60;101978.27;101182;1319;138445;-76
2021/11/15 06:25:05;;;;;;;0.60;0.60;;;;;;;7.27;73.90;101980.30;101271;1318;95619;-77
2021/11/15 06:27:33;;;;;;;0.50;0.50;;;;;;;7.28;73.92;101981.91;101306;1318;95252;-77
2021/11/15 06:30:01;;;;;;;0.50;0.50;;;;;;;7.31;73.69;101983.70;101211;1318;139866;-75
2021/11/15 06:32:29;;;;;;;0.50;0.50;;;;;;;7.24;73.53;101982.73;101049;1321;109884;-77
2021/11/15 06:34:57;;;;;;;0.50;0.50;;;;;;;7.13;73.63;101984.72;100920;1319;138902;-77
2021/11/15 06:37:26;;;;;;;0.60;0.60;;;;;;;7.12;73.84;101989.47;101170;1319;95626;-78
2021/11/15 06:39:54;;;;;;;0.60;0.60;;;;;;;7.16;73.74;101989.52;101238;1318;109117;-77
2021/11/15 06:42:22;;;;;;;0.50;0.50;;;;;;;7.12;73.49;101995.11;101212;1318;139818;-77
2021/11/15 06:44:49;;;;;;;0.60;0.60;;;;;;;6.98;73.86;102002.87;101263;1319;95289;-77
2021/11/15 06:47:18;;;;;;;0.60;0.60;;;;;;;6.99;74.09;102000.23;101071;1320;139152;-77
2021/11/15 06:49:46;;;;;;;0.60;0.60;;;;;;;7.03;73.81;102000.12;101530;1318;105739;-77
2021/11/15 06:52:14;;;;;;;0.50;0.50;;;;;;;7.13;73.80;101999.90;101253;1319;109390;-77
2021/11/15 06:54:42;;;;;;;0.60;0.60;;;;;;;7.18;73.70;101996.80;101240;1318;137871;-77
2021/11/15 06:57:10;;;;;;;0.60;0.60;;;;;;;7.29;73.72;101997.64;101291;1319;95742;-77
2021/11/15 06:59:37;;;;;;;0.60;0.60;;;;;;;7.37;73.09;102002.70;101004;1323;138443;-77
2021/11/15 07:02:05;;;;;;;0.50;0.50;;;;;;;7.34;72.98;102000.52;101363;1318;109825;-77
2021/11/15 07:04:34;;;;;;;0.50;0.50;;;;;;;7.28;72.90;101999.92;101088;1320;138837;-77
2021/11/15 07:07:02;;;;;;;0.60;0.60;;;;;;;7.18;73.01;102002.45;101318;1318;95788;-77
2021/11/15 07:09:30;;;;;;;0.60;0.60;;;;;;;7.13;72.96;102008.91;101016;1321;108953;-77
2021/11/15 07:11:58;;;;;;;0.60;0.60;;;;;;;7.12;73.02;102005.55;101226;1318;138695;-78
2021/11/15 07:14:26;;;;;;;0.50;0.50;;;;;;;7.17;72.99;102007.38;101259;1321;95243;-76
2021/11/15 07:16:54;;;;;;;0.50;0.50;;;;;;;7.17;73.07;102009.84;101163;1321;137934;-78
2021/11/15 07:19:22;;;;;;;0.60;0.60;;;;;;;7.12;72.69;102008.02;101712;1318;108049;-76
2021/11/15 07:21:50;;;;;;;0.60;0.60;;;;;;;7.05;72.97;102010.73;101284;1318;108513;-77
2021/11/15 07:24:18;;;;;;;0.50;0.50;;;;;;;7.09;73.27;102009.02;101116;1318;138787;-78
2021/11/15 07:26:45;;;;;;;0.50;0.50;;;;;;;7.23;73.19;102008.69;101274;1318;95259;-77
2021/11/15 07:29:13;;;;;;;0.50;0.50;;;;;;;7.26;72.67;102009.61;101042;1320;138166;-77
2021/11/15 07:31:43;;;;;;;0.50;0.50;;;;;;;7.30;73.07;102011.44;101099;1321;108848;-77
2021/11/15 07:34:11;;;;;;;0.60;0.60;;;;;;;7.32;72.68;102010.04;101269;1319;95256;-77
2021/11/15 07:36:39;;;;;;;0.50;0.50;;;;;;;7.30;71.92;102009.48;101095;1318;138119;-77
2021/11/15 07:39:08;;;;;;;0.60;0.60;;;;;;;7.20;72.30;102007.25;101277;1318;108665;-78
2021/11/15 07:41:36;;;;;;;0.60;0.60;;;;;;;7.16;72.56;102009.66;101179;1318;138469;-77
2021/11/15 07:44:04;;;;;;;0.60;0.60;;;;;;;7.15;72.32;102006.11;101061;1320;95291;-78
2021/11/15 07:46:31;;;;;;;0.50;0.50;;;;;;;7.16;72.70;102007.71;101096;1318;138633;-78
2021/11/15 07:49:00;;;;;;;0.50;0.50;;;;;;;7.13;72.54;102004.86;101236;1318;108844;-78
2021/11/15 07:51:28;;;;;;;0.50;0.50;;;;;;;7.20;72.80;102001.06;101252;1318;108370;-77
2021/11/15 07:53:56;;;;;;;0.50;0.50;;;;;;;7.34;72.34;102004.95;101168;1318;139730;-77
2021/11/15 07:56:24;;;;;;;0.50;0.50;;;;;;;7.32;71.56;102008.29;101234;1318;95282;-78
2021/11/15 07:58:51;;;;;;;0.50;0.50;;;;;;;7.28;71.66;102009.83;101124;1318;139172;-78
2021/11/15 08:01:19;;;;;;;0.50;0.50;;;;;;;7.17;71.68;102014.27;101238;1318;109574;-77
2021/11/15 08:03:47;;;;;;;0.60;0.60;;;;;;;7.05;72.12;102014.10;100926;1320;109540;-77
2021/11/15 08:06:15;;;;;;;0.50;0.50;;;;;;;7.09;72.20;102016.45;101238;1318;138588;-77
2021/11/15 08:08:43;;;;;;;0.50;0.50;;;;;;;7.07;72.23;102018.17;101357;1318;105992;-78
2021/11/15 08:11:12;;;;;;;0.70;0.70;;;;;;;7.07;72.00;102017.84;101199;1318;138630;-77
2021/11/15 08:13:40;;;;;;;0.50;0.50;;;;;;;7.08;71.93;102022.27;100991;1323;96210;-77
2021/11/15 08:16:08;;;;;;;0.50;0.50;;;;;;;7.02;71.82;102022.00;101117;1319;95648;-78
2021/11/15 08:18:37;;;;;;;0.60;0.60;;;;;;;6.91;71.69;102022.55;101090;1319;138783;-77
2021/11/15 08:21:12;;;;;;;0.60;0.60;;;;;;;6.87;72.15;102026.20;101251;1318;108902;-75
2021/11/15 08:23:42;;;;;;;0.50;0.50;;;;;;;6.91;72.27;102025.18;101201;1318;142567;-77
2021/11/15 08:26:32;;;;;;;0.50;0.50;;;;;;;6.89;72.28;102023.22;101059;1324;97344;-78
2021/11/15 08:29:20;;;;;;;0.60;0.60;;;;;;;6.86;72.33;102022.30;101074;1318;139042;-77
2021/11/15 08:31:48;;;;;;;0.60;0.60;;;;;;;6.88;72.34;102021.09;101356;1318;109494;-78
2021/11/15 08:34:16;;;;;;;0.50;0.50;;;;;;;7.01;72.40;102023.56;101316;1323;95379;-78
2021/11/15 08:36:45;;;;;;;0.60;0.60;;;;;;;7.07;71.69;102025.60;100940;1318;139252;-78
2021/11/15 08:39:15;;;;;;;0.60;0.60;;;;;;;6.97;71.92;102025.81;101142;1319;106393;-76
2021/11/15 08:41:47;;;;;;;0.60;0.60;;;;;;;6.91;72.00;102031.19;101190;1318;138064;-79
2021/11/15 08:44:17;;;;;;;0.60;0.60;;;;;;;6.86;72.01;102032.19;101295;1318;96557;-78
2021/11/15 08:46:47;;;;;;;0.60;0.60;;;;;;;6.83;72.13;102034.08;101174;1321;141048;-77
2021/11/15 08:49:17;;;;;;;0.50;0.50;;;;;;;6.84;72.26;102032.50;101282;1318;108538;-77
2021/11/15 08:51:45;;;;;;;0.60;0.60;;;;;;;6.85;72.18;102033.41;101266;1320;108848;-78
2021/11/15 08:54:16;;;;;;;0.60;0.60;;;;;;;6.85;71.78;102035.52;101227;1317;138503;-79
2021/11/15 08:56:53;;;;;;;0.60;0.60;;;;;;;6.83;72.08;102030.73;101154;1321;96467;-76
2021/11/15 08:59:42;;;;;;;0.50;0.50;;;;;;;6.88;72.15;102033.27;100980;1320;140255;-78
2021/11/15 09:02:11;;;;;;;0.60;0.60;;;;;;;6.92;72.03;102030.67;101293;1318;110840;-77
2021/11/15 09:04:39;;;;;;;0.60;0.60;;;;;;;6.95;71.86;102024.89;101152;1316;138389;-77
2021/11/15 09:07:08;;;;;;;0.60;0.60;;;;;;;6.97;71.74;102023.35;101214;1320;96148;-78
2021/11/15 09:09:36;;;;;;;0.50;0.50;;;;;;;7.02;71.80;102019.71;101073;1320;109304;-77
2021/11/15 09:12:08;;;;;;;0.50;0.50;;;;;;;7.06;71.51;102018.52;100942;1322;139682;-77
2021/11/15 09:14:37;;;;;;;0.60;0.60;;;;;;;7.10;71.60;102023.19;101300;1318;95377;-76
2021/11/15 09:17:05;;;;;;;0.60;0.60;;;;;;;7.12;71.12;102025.67;100811;1323;138760;-76
2021/11/15 09:19:33;;;;;;;0.60;0.60;;;;;;;7.13;70.90;102020.40;101245;1319;107866;-78
2021/11/15 09:22:02;;;;;;;0.60;0.60;;;;;;;7.18;71.31;102024.17;101310;1318;107543;-76
2021/11/15 09:24:31;;;;;;;0.60;0.60;;;;;;;7.18;70.84;102024.00;101204;1318;137939;-78
2021/11/15 09:27:01;;;;;;;0.50;0.50;;;;;;;7.24;70.53;102026.72;101253;1319;96675;-77
2021/11/15 09:29:29;;;;;;;0.60;0.60;;;;;;;7.25;70.84;102028.85;101142;1318;139276;-77
2021/11/15 09:31:57;;;;;;;0.50;0.50;;;;;;;7.30;70.73;102026.45;101444;1318;108919;-77
2021/11/15 09:34:26;;;;;;;0.60;0.60;;;;;;;7.38;70.71;102026.21;101258;1318;95257;-77
2021/11/15 09:36:53;;;;;;;0.60;0.60;;;;;;;7.40;70.54;102025.52;101062;1320;138055;-77
2021/11/15 09:39:23;;;;;;;0.50;0.50;;;;;;;7.36;69.48;102024.95;101284;1318;108926;-77
2021/11/15 09:41:51;;;;;;;0.50;0.50;;;;;;;7.30;69.76;102024.16;101078;1318;138620;-78
2021/11/15 09:44:19;;;;;;;0.60;0.60;;;;;;;7.25;70.07;102022.51;101064;1318;95863;-77
2021/11/15 09:46:47;;;;;;;0.50;0.50;;;;;;;7.33;70.44;102019.25;101165;1318;138692;-78
2021/11/15 09:49:14;;;;;;;0.50;0.50;;;;;;;7.37;69.94;102018.78;101168;1318;108844;-77
2021/11/15 09:51:46;;;;;;;0.50;0.50;;;;;;;7.38;70.47;102019.33;101251;1318;108570;-77
2021/11/15 09:54:15;;;;;;;0.50;0.50;;;;;;;7.39;69.77;102022.85;101065;1321;139398;-76
2021/11/15 09:56:44;;;;;;;0.60;0.60;;;;;;;7.31;69.72;102023.48;101240;1318;96559;-77
2021/11/15 09:59:13;;;;;;;0.50;0.50;;;;;;;7.25;69.68;102025.50;100912;1318;138621;-77
2021/11/15 10:01:44;;;;;;;0.50;0.50;;;;;;;7.26;70.12;102026.92;101296;1318;108316;-76
2021/11/15 10:04:14;;;;;;;0.50;0.50;;;;;;;7.24;69.83;102026.20;101403;1316;95290;-77
2021/11/15 10:06:49;;;;;;;0.60;0.60;;;;;;;7.23;70.24;102026.54;101184;1321;139570;-77
2021/11/15 10:09:28;;;;;;;0.50;0.50;;;;;;;7.23;70.26;102026.02;101212;1319;107710;-77
2021/11/15 10:11:56;;;;;;;0.60;0.60;;;;;;;7.26;69.89;102017.58;101111;1318;138764;-77
2021/11/15 10:14:25;;;;;;;0.60;0.60;;;;;;;7.18;69.83;102017.47;101373;1318;95183;-76
2021/11/15 10:17:00;;;;;;;0.60;0.60;;;;;;;7.16;70.03;102021.66;101050;1320;139823;-78
2021/11/15 10:19:30;;;;;;;0.50;0.50;;;;;;;7.28;70.68;102019.17;101327;1318;106231;-79
2021/11/15 10:22:00;;;;;;;0.50;0.50;;;;;;;7.30;69.93;102021.66;101221;1318;108134;-77
2021/11/15 10:24:34;;;;;;;0.50;0.50;;;;;;;7.26;70.05;102016.68;101218;1317;139607;-77
2021/11/15 10:27:16;;;;;;;0.50;0.50;;;;;;;7.20;69.95;102021.20;101314;1322;95261;-77
2021/11/15 10:29:46;;;;;;;0.50;0.50;;;;;;;7.19;70.07;102024.54;101015;1318;138383;-77
2021/11/15 10:32:29;;;;;;;0.60;0.60;;;;;;;7.24;70.14;102021.95;101227;1322;108828;-75
2021/11/15 10:35:02;;;;;;;0.60;0.60;;;;;;;7.30;70.18;102023.63;101189;1321;138739;-76
2021/11/15 10:37:31;;;;;;;0.50;0.50;;;;;;;7.34;70.42;102024.40;101144;1320;95375;-77
2021/11/15 10:40:11;;;;;;;0.60;0.60;;;;;;;7.35;70.19;102018.93;101349;1320;108180;-78
2021/11/15 10:42:42;;;;;;;0.50;0.50;;;;;;;7.26;69.88;102023.23;101102;1323;138930;-77
2021/11/15 10:45:19;;;;;;;0.50;0.50;;;;;;;7.29;70.23;102021.66;101221;1315;95280;-77
2021/11/15 10:47:50;;;;;;;0.60;0.60;;;;;;;7.27;69.87;102022.52;100964;1321;138512;-77
2021/11/15 10:50:27;;;;;;;0.60;0.60;;;;;;;7.20;70.07;102024.91;101270;1318;107896;-77
2021/11/15 10:53:01;;;;;;;0.50;0.50;;;;;;;7.17;70.32;102026.27;101182;1319;139334;-77
2021/11/15 10:55:31;;;;;;;0.50;0.50;;;;;;;7.25;70.66;102030.97;101266;1318;95598;-78
2021/11/15 10:57:59;;;;;;;0.50;0.50;;;;;;;7.29;70.33;102026.79;101252;1318;95481;-80
2021/11/15 11:00:33;;;;;;;0.60;0.60;;;;;;;7.26;69.95;102026.58;100973;1324;138516;-78
2021/11/15 11:03:06;;;;;;;0.50;0.50;;;;;;;7.25;70.53;102021.25;101228;1319;109358;-78
2021/11/15 11:05:36;;;;;;;0.50;0.50;;;;;;;7.41;70.73;102018.30;101179;1322;138363;-77
2021/11/15 11:08:23;;;;;;;0.50;0.50;;;;;;;7.44;70.08;102020.46;101189;1320;95311;-77
2021/11/15 11:11:09;;;;;;;0.50;0.50;;;;;;;7.49;70.59;102018.56;101100;1323;138159;-78
2021/11/15 11:13:49;;;;;;;0.50;0.50;;;;;;;7.65;70.44;102013.64;101263;1318;108850;-77
2021/11/15 11:16:18;;;;;;;0.60;0.60;;;;;;;7.86;69.99;102009.63;101141;1318;95320;-77
2021/11/15 11:19:03;;;;;;;0.50;0.50;;;;;;;7.76;68.88;102011.82;101263;1318;138951;-76
2021/11/15 11:24:59;;;;;;;0.60;0.60;;;;;;;7.64;69.60;102012.58;100992;1320;139214;-77
2021/11/15 11:27:16;;;;;;;0.50;0.50;;;;;;;7.64;69.26;102012.04;101342;1322;95784;-77
2021/11/15 11:29:49;;;;;;;0.60;0.60;;;;;;;7.62;69.28;102012.55;100916;1321;139563;-77
2021/11/15 11:32:22;;;;;;;0.60;0.60;;;;;;;7.54;69.64;102008.02;101168;1321;108941;-77